createdAt,value
2018-11-12T00:01:38.300Z,99807.34
2018-11-12T00:04:07.984Z,99823.89
2018-11-12T00:06:37.715Z,99828.44
2018-11-12T00:09:08.515Z,99821.06
2018-11-12T00:11:38.220Z,99825.25
2018-11-12T00:14:08.456Z,99831.27
2018-11-12T00:16:38.477Z,99826.91
2018-11-12T00:19:08.327Z,99829.09
2018-11-12T00:21:37.966Z,99825.59
2018-11-12T00:24:07.812Z,99818.05
2018-11-12T00:26:37.432Z,99816.03
2018-11-12T00:29:07.936Z,99815.55
2018-11-12T00:31:37.571Z,99818.53
2018-11-12T00:34:07.275Z,99835.97
2018-11-12T00:36:36.919Z,99835.45
2018-11-12T00:39:09.311Z,99831.27
2018-11-12T00:41:39.087Z,99820.90
2018-11-12T00:44:08.713Z,99819.39
2018-11-12T00:46:38.464Z,99822.92
2018-11-12T00:49:08.072Z,99822.40
2018-11-12T00:51:37.701Z,99824.58
2018-11-12T00:54:07.395Z,99830.27
2018-11-12T00:56:37.008Z,99815.88
2018-11-12T00:59:06.913Z,99800.49
2018-11-12T01:01:36.617Z,99809.67
2018-11-12T01:04:06.784Z,99822.57
2018-11-12T01:06:36.500Z,99829.75
2018-11-12T01:09:08.748Z,99837.48
2018-11-12T01:11:38.442Z,99839.13
2018-11-12T01:14:08.164Z,99842.15
2018-11-12T01:16:37.799Z,99839.30
2018-11-12T01:19:07.491Z,99826.91
2018-11-12T01:21:37.131Z,99829.59
2018-11-12T01:24:06.764Z,99826.91
2018-11-12T01:26:36.439Z,99823.41
2018-11-12T01:29:06.527Z,99828.08
2018-11-12T01:31:36.184Z,99829.59
2018-11-12T01:34:06.406Z,99831.41
2018-11-12T01:36:36.037Z,99851.17
2018-11-12T01:39:08.595Z,99840.77
2018-11-12T01:41:38.240Z,99846.64
2018-11-12T01:44:08.200Z,99847.67
2018-11-12T01:46:37.827Z,99852.34
2018-11-12T01:49:07.471Z,99849.31
2018-11-12T01:51:37.388Z,99856.83
2018-11-12T01:54:07.132Z,99863.21
2018-11-12T01:56:36.776Z,99857.01
2018-11-12T01:59:06.699Z,99865.38
2018-11-12T02:01:36.628Z,99864.37
2018-11-12T02:04:06.892Z,99869.55
2018-11-12T02:06:36.755Z,99871.25
2018-11-12T02:09:08.933Z,99867.06
2018-11-12T02:11:38.615Z,99872.75
2018-11-12T02:14:08.515Z,99864.39
2018-11-12T02:16:38.212Z,99858.86
2018-11-12T02:19:07.911Z,99853.84
2018-11-12T02:21:37.581Z,99846.47
2018-11-12T02:24:07.240Z,99836.28
2018-11-12T02:26:36.860Z,99833.77
2018-11-12T02:29:06.634Z,99846.30
2018-11-12T02:31:36.308Z,99858.03
2018-11-12T02:34:06.187Z,99863.69
2018-11-12T02:36:35.804Z,99861.37
2018-11-12T02:39:08.518Z,99855.49
2018-11-12T02:41:38.156Z,99856.83
2018-11-12T02:44:08.484Z,99860.19
2018-11-12T02:46:38.415Z,99862.70
2018-11-12T02:49:08.523Z,99864.72
2018-11-12T02:51:38.152Z,99855.36
2018-11-12T02:54:07.776Z,99859.03
2018-11-12T02:56:37.444Z,99847.16
2018-11-12T02:59:07.107Z,99850.34
2018-11-12T03:01:36.748Z,99854.67
2018-11-12T03:04:06.475Z,99851.17
2018-11-12T03:06:36.116Z,99857.34
2018-11-12T03:09:09.920Z,99851.13
2018-11-12T03:11:39.800Z,99860.37
2018-11-12T03:14:09.568Z,99855.14
2018-11-12T03:16:39.426Z,99860.33
2018-11-12T03:19:09.097Z,99869.69
2018-11-12T03:21:38.724Z,99870.20
2018-11-12T03:24:08.420Z,99879.40
2018-11-12T03:26:38.048Z,99877.07
2018-11-12T03:29:08.140Z,99861.66
2018-11-12T03:31:37.796Z,99852.81
2018-11-12T03:34:07.423Z,99848.80
2018-11-12T03:36:37.107Z,99857.51
2018-11-12T03:39:08.696Z,99854.15
2018-11-12T03:41:38.851Z,99856.17
2018-11-12T03:44:08.942Z,99858.34
2018-11-12T03:46:38.600Z,99843.97
2018-11-12T03:49:08.251Z,99851.65
2018-11-12T03:51:37.923Z,99843.63
2018-11-12T03:54:07.540Z,99837.11
2018-11-12T03:56:37.171Z,99842.12
2018-11-12T03:59:06.900Z,99836.11
2018-11-12T04:01:41.656Z,99849.32
2018-11-12T04:04:11.408Z,99846.16
2018-11-12T04:06:41.476Z,99841.30
2018-11-12T04:09:11.996Z,99837.79
2018-11-12T04:11:43.495Z,99842.80
2018-11-12T04:14:13.582Z,99847.84
2018-11-12T04:16:44.477Z,99861.06
2018-11-12T04:19:14.142Z,99874.10
2018-11-12T04:21:43.788Z,99874.75
2018-11-12T04:24:13.472Z,99871.91
2018-11-12T04:26:43.099Z,99865.42
2018-11-12T04:29:12.719Z,99857.70
2018-11-12T04:31:42.415Z,99841.63
2018-11-12T04:34:12.036Z,99847.67
2018-11-12T04:36:41.652Z,99854.70
2018-11-12T04:39:11.315Z,99848.33
2018-11-12T04:41:40.919Z,99845.33
2018-11-12T04:44:10.551Z,99838.63
2018-11-12T04:46:40.231Z,99837.95
2018-11-12T04:49:10.033Z,99841.49
2018-11-12T04:51:39.688Z,99841.49
2018-11-12T04:54:09.340Z,99851.86
2018-11-12T04:56:38.956Z,99855.36
2018-11-12T04:59:08.656Z,99847.33
2018-11-12T05:01:38.539Z,99831.61
2018-11-12T05:04:08.159Z,99845.33
2018-11-12T05:06:37.787Z,99851.38
2018-11-12T05:09:09.184Z,99858.03
2018-11-12T05:11:38.900Z,99864.91
2018-11-12T05:14:08.601Z,99867.41
2018-11-12T05:16:38.495Z,99873.27
2018-11-12T05:19:08.152Z,99872.63
2018-11-12T05:21:37.787Z,99877.81
2018-11-12T05:24:07.471Z,99872.63
2018-11-12T05:26:37.101Z,99872.94
2018-11-12T05:29:06.811Z,99876.98
2018-11-12T05:31:36.448Z,99887.69
2018-11-12T05:34:06.591Z,99888.52
2018-11-12T05:36:36.218Z,99882.81
2018-11-12T05:39:09.499Z,99888.00
2018-11-12T05:41:39.160Z,99893.05
2018-11-12T05:44:09.519Z,99885.02
2018-11-12T05:46:39.230Z,99883.50
2018-11-12T05:49:08.920Z,99886.02
2018-11-12T05:51:38.593Z,99889.85
2018-11-12T05:54:08.217Z,99887.68
2018-11-12T05:56:37.852Z,99897.73
2018-11-12T05:59:07.671Z,99907.09
2018-11-12T06:01:37.283Z,99904.92
2018-11-12T06:04:07.030Z,99892.70
2018-11-12T06:06:36.656Z,99885.19
2018-11-12T06:09:09.337Z,99887.52
2018-11-12T06:11:39.220Z,99888.17
2018-11-12T06:14:09.282Z,99889.52
2018-11-12T06:16:38.927Z,99884.84
2018-11-12T06:19:08.583Z,99885.33
2018-11-12T06:21:38.215Z,99891.20
2018-11-12T06:24:07.895Z,99884.67
2018-11-12T06:26:37.535Z,99888.52
2018-11-12T06:29:07.320Z,99887.69
2018-11-12T06:31:36.980Z,99881.98
2018-11-12T06:34:06.879Z,99886.83
2018-11-12T06:36:36.574Z,99897.72
2018-11-12T06:39:08.801Z,99894.21
2018-11-12T06:41:38.545Z,99893.70
2018-11-12T06:44:09.255Z,99891.70
2018-11-12T06:46:38.902Z,99894.05
2018-11-12T06:49:08.583Z,99886.66
2018-11-12T06:51:38.229Z,99879.66
2018-11-12T06:54:07.879Z,99871.10
2018-11-12T06:56:37.516Z,99879.66
2018-11-12T06:59:07.169Z,99875.12
2018-11-12T07:01:36.805Z,99865.75
2018-11-12T07:04:06.545Z,99864.41
2018-11-12T07:06:36.216Z,99859.05
2018-11-12T07:09:08.836Z,99852.19
2018-11-12T07:11:38.499Z,99852.02
2018-11-12T07:14:08.423Z,99846.00
2018-11-12T07:16:38.424Z,99852.53
2018-11-12T07:19:08.124Z,99856.89
2018-11-12T07:21:37.745Z,99857.05
2018-11-12T07:24:07.686Z,99860.91
2018-11-12T07:26:37.323Z,99864.58
2018-11-12T07:29:06.991Z,99866.73
2018-11-12T07:31:36.628Z,99872.78
2018-11-12T07:34:06.412Z,99863.92
2018-11-12T07:36:36.053Z,99871.10
2018-11-12T07:39:08.834Z,99874.95
2018-11-12T07:41:38.472Z,99867.94
2018-11-12T07:44:08.208Z,99862.75
2018-11-12T07:46:37.824Z,99865.75
2018-11-12T07:49:07.520Z,99860.70
2018-11-12T07:51:37.131Z,99860.06
2018-11-12T07:54:06.808Z,99848.48
2018-11-12T07:56:36.435Z,99849.34
2018-11-12T07:59:06.148Z,99839.63
2018-11-12T08:01:35.783Z,99843.16
2018-11-12T08:04:05.456Z,99847.83
2018-11-12T08:06:35.083Z,99849.17
2018-11-12T08:09:05.817Z,99842.28
2018-11-12T08:11:35.428Z,99838.63
2018-11-12T08:14:05.098Z,99837.28
2018-11-12T08:16:34.823Z,99838.97
2018-11-12T08:19:04.780Z,99836.09
2018-11-12T08:21:34.451Z,99842.97
2018-11-12T08:24:04.088Z,99840.28
2018-11-12T08:26:33.716Z,99841.61
2018-11-12T08:29:03.408Z,99842.45
2018-11-12T08:31:33.021Z,99837.07
2018-11-12T08:34:02.668Z,99835.88
2018-11-12T08:36:32.381Z,99831.52
2018-11-12T08:39:02.005Z,99830.97
2018-11-12T08:41:31.644Z,99830.32
2018-11-12T08:44:01.332Z,99818.57
2018-11-12T08:46:30.960Z,99819.19
2018-11-12T08:49:00.798Z,99799.70
2018-11-12T08:51:30.280Z,99811.78
2018-11-12T08:53:59.940Z,99808.53
2018-11-12T08:56:29.586Z,99796.28
2018-11-12T08:58:59.269Z,99779.82
2018-11-12T09:01:28.892Z,99790.52
2018-11-12T09:03:58.628Z,99796.19
2018-11-12T09:06:28.236Z,99788.30
2018-11-12T09:08:57.927Z,99792.78
2018-11-12T09:11:27.559Z,99787.08
2018-11-12T09:13:57.200Z,99789.61
2018-11-12T09:16:26.816Z,99791.62
2018-11-12T09:18:56.463Z,99789.94
2018-11-12T09:21:26.109Z,99789.13
2018-11-12T09:23:55.813Z,99783.60
2018-11-12T09:26:25.447Z,99782.78
2018-11-12T09:28:55.135Z,99793.52
2018-11-12T09:31:25.860Z,99790.55
2018-11-12T09:36:24.140Z,99788.73
2018-11-12T09:38:54.010Z,99780.16
2018-11-12T09:41:23.505Z,99792.80
2018-11-12T09:43:53.112Z,99779.10
2018-11-12T09:46:22.763Z,99779.55
2018-11-12T09:48:52.430Z,99789.36
2018-11-12T09:51:22.616Z,99800.58
2018-11-12T09:53:52.315Z,99812.30
2018-11-12T09:56:21.932Z,99817.87
2018-11-12T09:58:51.562Z,99813.17
2018-11-12T10:01:21.709Z,99823.24
2018-11-12T10:03:52.395Z,99811.49
2018-11-12T10:06:22.208Z,99810.86
2018-11-12T10:08:52.359Z,99810.77
2018-11-12T10:11:23.257Z,99803.92
2018-11-12T10:13:52.420Z,99798.88
2018-11-12T10:16:22.895Z,99795.55
2018-11-12T10:18:49.520Z,99794.48
2018-11-12T10:21:19.195Z,99789.74
2018-11-12T10:23:48.845Z,99782.56
2018-11-12T10:26:18.500Z,99784.16
2018-11-12T10:28:48.149Z,99776.88
2018-11-12T10:31:17.810Z,99780.09
2018-11-12T10:33:47.440Z,99786.14
2018-11-12T10:36:17.067Z,99793.70
2018-11-12T10:38:46.699Z,99785.00
2018-11-12T10:41:16.370Z,99795.51
2018-11-12T10:43:46.006Z,99790.61
2018-11-12T10:46:15.692Z,99785.42
2018-11-12T10:48:45.329Z,99780.86
2018-11-12T10:51:14.991Z,99785.69
2018-11-12T10:53:50.045Z,99790.05
2018-11-12T10:56:14.713Z,99781.35
2018-11-12T10:58:44.257Z,99787.20
2018-11-12T11:01:23.016Z,99778.95
2018-11-12T11:03:58.445Z,99777.94
2018-11-12T11:06:28.095Z,99767.63
2018-11-12T11:08:57.767Z,99773.19
2018-11-12T11:11:27.419Z,99757.75
2018-11-12T11:13:57.040Z,99749.63
2018-11-12T11:16:26.697Z,99753.27
2018-11-12T11:18:56.315Z,99758.41
2018-11-12T11:21:25.977Z,99747.50
2018-11-12T11:23:56.256Z,99744.87
2018-11-12T11:26:25.911Z,99747.05
2018-11-12T11:28:55.527Z,99745.98
2018-11-12T11:31:25.204Z,99743.42
2018-11-12T11:33:54.819Z,99739.41
2018-11-12T11:36:24.476Z,99740.91
2018-11-12T11:38:54.202Z,99742.63
2018-11-12T11:41:23.836Z,99744.06
2018-11-12T11:43:53.458Z,99739.73
2018-11-12T11:46:23.100Z,99748.80
2018-11-12T11:48:52.786Z,99746.64
2018-11-12T11:51:22.448Z,99741.61
2018-11-12T11:53:52.084Z,99734.27
2018-11-12T11:56:21.814Z,99739.03
2018-11-12T11:58:51.404Z,99732.70
2018-11-12T12:01:21.119Z,99734.77
2018-11-12T12:03:54.824Z,99732.06
2018-11-12T12:06:24.479Z,99723.14
2018-11-12T12:08:54.131Z,99724.06
2018-11-12T12:11:23.801Z,99725.13
2018-11-12T12:13:53.503Z,99718.66
2018-11-12T12:16:23.175Z,99714.20
2018-11-12T12:18:52.845Z,99719.28
2018-11-12T12:21:22.490Z,99722.61
2018-11-12T12:23:52.237Z,99725.94
2018-11-12T12:26:21.880Z,99716.80
2018-11-12T12:28:51.493Z,99724.69
2018-11-12T12:31:21.144Z,99714.91
2018-11-12T12:33:50.768Z,99710.66
2018-11-12T12:36:20.523Z,99714.50
2018-11-12T12:38:50.108Z,99699.20
2018-11-12T12:41:19.878Z,99714.44
2018-11-12T12:43:49.491Z,99702.58
2018-11-12T12:46:19.148Z,99699.77
2018-11-12T12:48:48.828Z,99712.76
2018-11-12T12:51:18.567Z,99716.09
2018-11-12T12:53:48.181Z,99720.45
2018-11-12T12:56:17.904Z,99723.75
2018-11-12T12:58:47.535Z,99725.56
2018-11-12T13:01:17.191Z,99722.36
2018-11-12T13:03:46.824Z,99713.66
2018-11-12T13:06:16.480Z,99718.23
2018-11-12T13:08:46.116Z,99717.70
2018-11-12T13:11:15.796Z,99713.55
2018-11-12T13:13:45.502Z,99710.94
2018-11-12T13:16:15.166Z,99718.30
2018-11-12T13:18:44.792Z,99711.72
2018-11-12T13:21:14.468Z,99725.95
2018-11-12T13:23:44.123Z,99732.05
2018-11-12T13:26:13.769Z,99731.48
2018-11-12T13:28:43.396Z,99729.24
2018-11-12T13:31:13.055Z,99729.27
2018-11-12T13:33:42.697Z,99722.21
2018-11-12T13:36:12.716Z,99735.61
2018-11-12T13:38:42.343Z,99730.92
2018-11-12T13:41:11.973Z,99718.19
2018-11-12T13:43:41.612Z,99712.94
2018-11-12T13:46:11.300Z,99707.53
2018-11-12T13:48:40.975Z,99717.62
2018-11-12T13:51:10.637Z,99717.20
2018-11-12T13:53:40.331Z,99723.24
2018-11-12T13:56:10.019Z,99733.30
2018-11-12T13:58:39.634Z,99744.97
2018-11-12T14:01:09.280Z,99746.58
2018-11-12T14:03:38.908Z,99746.95
2018-11-12T14:06:08.566Z,99745.28
2018-11-12T14:08:38.355Z,99737.88
2018-11-12T14:11:08.011Z,99750.77
2018-11-12T14:13:37.647Z,99740.55
2018-11-12T14:16:07.340Z,99731.75
2018-11-12T14:18:37.020Z,99719.48
2018-11-12T14:21:06.808Z,99723.97
2018-11-12T14:23:36.340Z,99721.19
2018-11-12T14:26:06.035Z,99723.48
2018-11-12T14:28:35.797Z,99723.78
2018-11-12T14:31:05.414Z,99726.81
2018-11-12T14:33:35.036Z,99746.42
2018-11-12T14:36:04.811Z,99742.47
2018-11-12T14:38:34.431Z,99741.65
2018-11-12T14:41:04.107Z,99739.23
2018-11-12T14:43:33.754Z,99727.81
2018-11-12T14:46:03.548Z,99726.33
2018-11-12T14:48:33.181Z,99731.73
2018-11-12T14:51:02.897Z,99728.05
2018-11-12T14:53:32.511Z,99732.44
2018-11-12T14:56:02.192Z,99736.81
2018-11-12T14:58:31.824Z,99735.55
2018-11-12T15:01:01.473Z,99739.67
2018-11-12T15:03:31.531Z,99737.16
2018-11-12T15:06:01.212Z,99729.56
2018-11-12T15:08:30.855Z,99733.17
2018-11-12T15:11:00.515Z,99737.52
2018-11-12T15:13:30.144Z,99738.62
2018-11-12T15:15:59.805Z,99739.04
2018-11-12T15:18:29.431Z,99739.27
2018-11-12T15:20:59.103Z,99745.11
2018-11-12T15:23:28.765Z,99750.89
2018-11-12T15:25:58.408Z,99750.94
2018-11-12T15:28:28.046Z,99756.92
2018-11-12T15:30:57.703Z,99751.03
2018-11-12T15:33:27.319Z,99757.13
2018-11-12T15:35:56.971Z,99759.25
2018-11-12T15:38:26.599Z,99763.50
2018-11-12T15:40:56.257Z,99767.55
2018-11-12T15:43:25.976Z,99767.02
2018-11-12T15:45:55.914Z,99760.61
2018-11-12T15:48:25.528Z,99759.58
2018-11-12T15:50:55.254Z,99758.97
2018-11-12T15:53:25.180Z,99757.22
2018-11-12T15:55:54.834Z,99768.53
2018-11-12T15:58:24.555Z,99765.52
2018-11-12T16:00:54.607Z,99766.75
2018-11-12T16:03:24.236Z,99773.89
2018-11-12T16:05:53.976Z,99769.84
2018-11-12T16:08:23.543Z,99783.38
2018-11-12T16:10:53.215Z,99778.58
2018-11-12T16:13:22.868Z,99780.37
2018-11-12T16:15:52.504Z,99788.97
2018-11-12T16:18:22.155Z,99787.04
2018-11-12T16:20:51.783Z,99788.41
2018-11-12T16:23:21.424Z,99785.08
2018-11-12T16:25:51.045Z,99781.11
2018-11-12T16:28:20.715Z,99772.95
2018-11-12T16:30:50.343Z,99770.45
2018-11-12T16:33:20.028Z,99769.23
2018-11-12T16:35:49.667Z,99770.13
2018-11-12T16:38:19.323Z,99785.34
2018-11-12T16:40:48.961Z,99788.41
2018-11-12T16:43:18.615Z,99791.19
2018-11-12T16:45:48.287Z,99788.89
2018-11-12T16:48:17.952Z,99796.33
2018-11-12T16:50:47.588Z,99787.78
2018-11-12T16:53:17.300Z,99793.63
2018-11-12T16:55:46.926Z,99796.78
2018-11-12T16:58:16.584Z,99807.12
2018-11-12T17:00:46.217Z,99819.67
2018-11-12T17:03:15.844Z,99823.42
2018-11-12T17:05:45.541Z,99822.89
2018-11-12T17:08:15.204Z,99825.45
2018-11-12T17:10:44.835Z,99830.16
2018-11-12T17:13:14.547Z,99834.00
2018-11-12T17:15:44.204Z,99836.56
2018-11-12T17:18:13.883Z,99842.77
2018-11-12T17:20:43.568Z,99848.28
2018-11-12T17:23:13.315Z,99851.70
2018-11-12T17:25:42.880Z,99850.55
2018-11-12T17:28:12.597Z,99845.10
2018-11-12T17:30:42.247Z,99851.70
2018-11-12T17:33:11.900Z,99855.02
2018-11-12T17:35:41.547Z,99862.62
2018-11-12T17:38:12.095Z,99860.28
2018-11-12T17:40:41.780Z,99860.94
2018-11-12T17:43:11.450Z,99870.89
2018-11-12T17:45:41.100Z,99868.49
2018-11-12T17:48:10.723Z,99862.62
2018-11-12T17:50:40.411Z,99862.48
2018-11-12T17:53:10.079Z,99862.28
2018-11-12T17:55:39.787Z,99864.29
2018-11-12T17:58:09.499Z,99864.45
2018-11-12T18:00:39.163Z,99866.75
2018-11-12T18:03:08.808Z,99866.79
2018-11-12T18:05:38.488Z,99869.28
2018-11-12T18:08:08.250Z,99883.38
2018-11-12T18:10:37.992Z,99879.13
2018-11-12T18:13:07.658Z,99880.69
2018-11-12T18:15:37.343Z,99887.03
2018-11-12T18:18:07.120Z,99887.36
2018-11-12T18:20:36.779Z,99884.10
2018-11-12T18:23:06.540Z,99881.41
2018-11-12T18:25:36.217Z,99893.08
2018-11-12T18:28:06.219Z,99902.17
2018-11-12T18:30:36.043Z,99904.11
2018-11-12T18:33:05.883Z,99913.97
2018-11-12T18:35:35.548Z,99927.37
2018-11-12T18:38:05.315Z,99935.70
2018-11-12T18:40:34.964Z,99945.27
2018-11-12T18:43:04.614Z,99939.87
2018-11-12T18:45:34.290Z,99938.66
2018-11-12T18:48:03.972Z,99954.89
2018-11-12T18:50:33.624Z,99946.28
2018-11-12T18:53:03.284Z,99960.73
2018-11-12T18:55:32.940Z,99961.17
2018-11-12T18:58:02.585Z,99966.07
2018-11-12T19:00:32.259Z,99970.60
2018-11-12T19:03:01.884Z,99968.30
2018-11-12T19:05:31.546Z,99984.66
2018-11-12T19:08:01.897Z,100000.54
2018-11-12T19:10:32.964Z,100015.83
2018-11-12T19:13:02.705Z,100022.56
2018-11-12T19:15:34.141Z,100032.81
2018-11-12T19:18:06.363Z,100046.10
2018-11-12T19:20:36.086Z,100034.12
2018-11-12T19:23:06.146Z,100027.65
2018-11-12T19:25:35.831Z,100027.34
2018-11-12T19:28:05.519Z,100048.13
2018-11-12T19:30:35.263Z,100046.97
2018-11-12T19:33:05.187Z,100073.27
2018-11-12T19:35:34.867Z,100070.95
2018-11-12T19:38:04.520Z,100075.67
2018-11-12T19:40:34.502Z,100081.81
2018-11-12T19:43:04.141Z,100079.50
2018-11-12T19:45:33.816Z,100096.33
2018-11-12T19:48:03.968Z,100104.55
2018-11-12T19:50:33.640Z,100095.99
2018-11-12T19:53:03.302Z,100094.34
2018-11-12T19:55:32.998Z,100098.45
2018-11-12T19:58:02.656Z,100102.17
2018-11-12T20:00:32.401Z,100092.45
2018-11-12T20:03:02.816Z,100090.66
2018-11-12T20:05:32.541Z,100092.15
2018-11-12T20:08:02.219Z,100098.91
2018-11-12T20:10:31.933Z,100104.95
2018-11-12T20:13:01.641Z,100116.38
2018-11-12T20:15:31.415Z,100118.11
2018-11-12T20:18:01.085Z,100126.53
2018-11-12T20:20:32.000Z,100130.56
2018-11-12T20:23:01.688Z,100123.07
2018-11-12T20:25:31.439Z,100132.63
2018-11-12T20:28:01.092Z,100127.27
2018-11-12T20:30:33.663Z,100132.84
2018-11-12T20:33:03.624Z,100126.48
2018-11-12T20:35:33.292Z,100136.09
2018-11-12T20:38:02.979Z,100143.16
2018-11-12T20:40:32.694Z,100149.88
2018-11-12T20:43:02.384Z,100156.61
2018-11-12T20:45:32.048Z,100172.37
2018-11-12T20:48:01.735Z,100176.23
2018-11-12T20:50:31.623Z,100174.06
2018-11-12T20:53:01.292Z,100180.28
2018-11-12T20:55:31.042Z,100173.77
2018-11-12T20:58:00.677Z,100182.11
2018-11-12T21:00:30.368Z,100200.41
2018-11-12T21:03:00.053Z,100208.98
2018-11-12T21:05:30.548Z,100202.11
2018-11-12T21:08:00.199Z,100206.31
2018-11-12T21:10:29.872Z,100211.17
2018-11-12T21:12:59.531Z,100199.27
2018-11-12T21:15:29.219Z,100192.03
2018-11-12T21:17:58.847Z,100189.69
2018-11-12T21:20:28.528Z,100195.24
2018-11-12T21:22:58.188Z,100192.39
2018-11-12T21:25:28.445Z,100182.48
2018-11-12T21:27:58.092Z,100176.94
2018-11-12T21:30:28.785Z,100176.11
2018-11-12T21:32:58.459Z,100172.92
2018-11-12T21:35:28.137Z,100181.50
2018-11-12T21:37:58.140Z,100188.52
2018-11-12T21:40:28.875Z,100191.06
2018-11-12T21:42:58.549Z,100195.06
2018-11-12T21:45:29.667Z,100198.77
2018-11-12T21:47:59.345Z,100196.91
2018-11-12T21:50:29.020Z,100196.74
2018-11-12T21:52:58.687Z,100201.77
2018-11-12T21:55:28.347Z,100188.36
2018-11-12T21:57:58.004Z,100181.16
2018-11-12T22:00:28.413Z,100189.36
2018-11-12T22:03:00.253Z,100189.19
2018-11-12T22:05:30.806Z,100187.50
2018-11-12T22:08:00.775Z,100191.05
2018-11-12T22:10:30.480Z,100188.67
2018-11-12T22:13:00.150Z,100190.53
2018-11-12T22:15:29.817Z,100188.19
2018-11-12T22:17:59.515Z,100189.02
2018-11-12T22:20:29.712Z,100182.31
2018-11-12T22:22:59.341Z,100187.67
2018-11-12T22:25:28.980Z,100193.05
2018-11-12T22:27:58.716Z,100195.55
2018-11-12T22:30:28.384Z,100201.61
2018-11-12T22:32:58.047Z,100198.58
2018-11-12T22:35:27.706Z,100219.05
2018-11-12T22:37:57.386Z,100233.45
2018-11-12T22:40:27.015Z,100248.91
2018-11-12T22:42:56.696Z,100248.22
2018-11-12T22:45:26.339Z,100246.70
2018-11-12T22:47:55.999Z,100250.73
2018-11-12T22:50:25.677Z,100249.91
2018-11-12T22:52:55.356Z,100255.79
2018-11-12T22:55:24.999Z,100246.87
2018-11-12T22:57:54.651Z,100243.84
2018-11-12T23:00:28.195Z,100234.45
2018-11-12T23:02:58.716Z,100241.98
2018-11-12T23:05:28.420Z,100246.51
2018-11-12T23:07:58.090Z,100254.22
2018-11-12T23:10:27.733Z,100257.77
2018-11-12T23:12:57.480Z,100254.56
2018-11-12T23:15:27.127Z,100259.06
2018-11-12T23:17:56.783Z,100249.66
2018-11-12T23:20:27.991Z,100251.69
2018-11-12T23:22:57.673Z,100256.54
2018-11-12T23:25:27.308Z,100264.07
2018-11-12T23:27:56.952Z,100260.55
2018-11-12T23:30:26.642Z,100261.55
2018-11-12T23:32:56.308Z,100255.89
2018-11-12T23:35:26.399Z,100262.23
2018-11-12T23:37:56.092Z,100269.77
2018-11-12T23:40:25.732Z,100265.41
2018-11-12T23:42:55.351Z,100270.94
2018-11-12T23:45:25.036Z,100282.12
2018-11-12T23:47:54.667Z,100278.09
2018-11-12T23:50:24.311Z,100284.97
2018-11-12T23:52:54.239Z,100295.03
2018-11-12T23:55:23.863Z,100283.97
2018-11-12T23:57:53.519Z,100294.03
